sensor_id;sensor_type;location;lat;lon;timestamp;temperature;humidity
16060;DHT22;8134;49.552;7.632;2022-09-28T15:32:29;14.80;99.90
16060;DHT22;8134;49.552;7.632;2022-09-28T15:34:56;14.60;99.90
16060;DHT22;8134;49.552;7.632;2022-09-28T15:37:33;14.40;99.90
16060;DHT22;8134;49.552;7.632;2022-09-28T15:40:00;14.10;99.90
16060;DHT22;8134;49.552;7.632;2022-09-28T15:42:33;13.80;99.90
16060;DHT22;8134;49.552;7.632;2022-09-28T15:47:26;13.40;99.90
16060;DHT22;8134;49.552;7.632;2022-09-28T15:49:53;13.20;99.90
16060;DHT22;8134;49.552;7.632;2022-09-28T16:02:15;13.30;99.90
16060;DHT22;8134;49.552;7.632;2022-09-28T16:09:53;13.10;99.90
16060;DHT22;8134;49.552;7.632;2022-09-28T16:12:19;13.20;99.90
16060;DHT22;8134;49.552;7.632;2022-09-28T16:19:38;13.30;99.90
16060;DHT22;8134;49.552;7.632;2022-09-28T16:22:06;13.20;99.90
16060;DHT22;8134;49.552;7.632;2022-09-28T16:24:38;13.20;99.90
16060;DHT22;8134;49.552;7.632;2022-09-28T16:27:08;13.20;99.90
16060;DHT22;8134;49.552;7.632;2022-09-28T16:30:00;13.10;99.90
16060;DHT22;8134;49.552;7.632;2022-09-28T16:32:34;13.10;99.90
16060;DHT22;8134;49.552;7.632;2022-09-28T16:37:37;12.90;99.90
16060;DHT22;8134;49.552;7.632;2022-09-28T16:40:05;12.80;99.90
16060;DHT22;8134;49.552;7.632;2022-09-28T16:42:30;12.70;99.90
16060;DHT22;8134;49.552;7.632;2022-09-28T16:44:56;12.60;99.90
16060;DHT22;8134;49.552;7.632;2022-09-28T16:47:22;12.50;99.90
16060;DHT22;8134;49.552;7.632;2022-09-28T16:49:47;12.50;99.90
16060;DHT22;8134;49.552;7.632;2022-09-28T16:52:13;12.40;99.90
16060;DHT22;8134;49.552;7.632;2022-09-28T16:54:59;12.30;99.90
16060;DHT22;8134;49.552;7.632;2022-09-28T16:57:40;12.20;99.90
16060;DHT22;8134;49.552;7.632;2022-09-28T17:00:08;12.10;99.90
16060;DHT22;8134;49.552;7.632;2022-09-28T17:02:34;12.00;99.90
16060;DHT22;8134;49.552;7.632;2022-09-28T17:05:00;12.00;99.90
16060;DHT22;8134;49.552;7.632;2022-09-28T17:07:26;12.00;99.90
16060;DHT22;8134;49.552;7.632;2022-09-28T17:09:51;11.90;99.90
16060;DHT22;8134;49.552;7.632;2022-09-28T17:12:18;11.90;99.90
16060;DHT22;8134;49.552;7.632;2022-09-28T17:14:45;11.90;99.90
16060;DHT22;8134;49.552;7.632;2022-09-28T17:17:10;11.80;99.90
16060;DHT22;8134;49.552;7.632;2022-09-28T17:19:36;11.80;99.90
16060;DHT22;8134;49.552;7.632;2022-09-28T17:22:02;11.80;99.90
16060;DHT22;8134;49.552;7.632;2022-09-28T17:24:27;11.60;99.90
16060;DHT22;8134;49.552;7.632;2022-09-28T17:26:53;11.60;99.90
16060;DHT22;8134;49.552;7.632;2022-09-28T17:29:19;11.60;99.90
16060;DHT22;8134;49.552;7.632;2022-09-28T17:31:44;11.60;99.90
16060;DHT22;8134;49.552;7.632;2022-09-28T17:34:11;11.50;99.90
16060;DHT22;8134;49.552;7.632;2022-09-28T17:36:36;11.50;99.90
16060;DHT22;8134;49.552;7.632;2022-09-28T17:39:03;11.50;99.90
16060;DHT22;8134;49.552;7.632;2022-09-28T17:41:28;11.50;99.90
16060;DHT22;8134;49.552;7.632;2022-09-28T17:43:54;11.60;99.90
16060;DHT22;8134;49.552;7.632;2022-09-28T17:46:27;11.50;99.90
16060;DHT22;8134;49.552;7.632;2022-09-28T17:48:53;11.50;99.90
16060;DHT22;8134;49.552;7.632;2022-09-28T17:51:19;11.40;99.90
16060;DHT22;8134;49.552;7.632;2022-09-28T17:53:46;11.30;99.90
16060;DHT22;8134;49.552;7.632;2022-09-28T17:56:11;11.20;99.90
16060;DHT22;8134;49.552;7.632;2022-09-28T17:58:37;11.20;99.90
16060;DHT22;8134;49.552;7.632;2022-09-28T18:01:03;11.10;99.90
16060;DHT22;8134;49.552;7.632;2022-09-28T18:03:28;11.00;99.90
16060;DHT22;8134;49.552;7.632;2022-09-28T18:05:57;10.90;99.90
16060;DHT22;8134;49.552;7.632;2022-09-28T18:08:25;10.80;99.90
16060;DHT22;8134;49.552;7.632;2022-09-28T18:10:51;10.70;99.90
16060;DHT22;8134;49.552;7.632;2022-09-28T18:13:16;10.70;99.90
16060;DHT22;8134;49.552;7.632;2022-09-28T18:15:41;10.60;99.90
16060;DHT22;8134;49.552;7.632;2022-09-28T18:18:07;10.50;99.90
16060;DHT22;8134;49.552;7.632;2022-09-28T18:20:37;10.40;99.90
16060;DHT22;8134;49.552;7.632;2022-09-28T18:23:02;10.20;99.90
16060;DHT22;8134;49.552;7.632;2022-09-28T18:25:28;10.20;99.90
16060;DHT22;8134;49.552;7.632;2022-09-28T18:27:54;10.10;99.90
16060;DHT22;8134;49.552;7.632;2022-09-28T18:30:22;10.00;99.90
16060;DHT22;8134;49.552;7.632;2022-09-28T18:32:48;10.00;99.90
16060;DHT22;8134;49.552;7.632;2022-09-28T18:35:13;9.90;99.90
16060;DHT22;8134;49.552;7.632;2022-09-28T18:37:39;9.90;99.90
16060;DHT22;8134;49.552;7.632;2022-09-28T18:40:05;9.90;99.90
16060;DHT22;8134;49.552;7.632;2022-09-28T18:42:31;9.90;99.90
16060;DHT22;8134;49.552;7.632;2022-09-28T18:45:00;9.80;99.90
16060;DHT22;8134;49.552;7.632;2022-09-28T18:47:25;9.80;99.90
16060;DHT22;8134;49.552;7.632;2022-09-28T18:49:52;9.80;99.90
16060;DHT22;8134;49.552;7.632;2022-09-28T18:52:17;9.80;99.90
16060;DHT22;8134;49.552;7.632;2022-09-28T18:54:43;9.70;99.90
16060;DHT22;8134;49.552;7.632;2022-09-28T18:57:11;9.80;99.90
16060;DHT22;8134;49.552;7.632;2022-09-28T18:59:36;9.80;99.90
16060;DHT22;8134;49.552;7.632;2022-09-28T19:02:02;9.70;99.90
16060;DHT22;8134;49.552;7.632;2022-09-28T19:04:27;9.70;99.90
16060;DHT22;8134;49.552;7.632;2022-09-28T19:06:53;9.70;99.90
16060;DHT22;8134;49.552;7.632;2022-09-28T19:09:19;9.60;99.90
16060;DHT22;8134;49.552;7.632;2022-09-28T19:11:46;9.60;99.90
16060;DHT22;8134;49.552;7.632;2022-09-28T19:14:11;9.70;99.90
16060;DHT22;8134;49.552;7.632;2022-09-28T19:16:39;9.60;99.90
16060;DHT22;8134;49.552;7.632;2022-09-28T19:19:04;9.60;99.90
16060;DHT22;8134;49.552;7.632;2022-09-28T19:21:30;9.60;99.90
16060;DHT22;8134;49.552;7.632;2022-09-28T19:23:58;9.70;99.90
16060;DHT22;8134;49.552;7.632;2022-09-28T19:26:25;9.60;99.90
16060;DHT22;8134;49.552;7.632;2022-09-28T19:28:52;9.70;99.90
16060;DHT22;8134;49.552;7.632;2022-09-28T19:31:18;9.60;99.90
16060;DHT22;8134;49.552;7.632;2022-09-28T19:33:44;9.60;99.90
16060;DHT22;8134;49.552;7.632;2022-09-28T19:36:11;9.60;99.90
16060;DHT22;8134;49.552;7.632;2022-09-28T19:38:37;9.70;99.90
16060;DHT22;8134;49.552;7.632;2022-09-28T19:41:07;9.80;99.90
16060;DHT22;8134;49.552;7.632;2022-09-28T19:43:32;9.80;99.90
16060;DHT22;8134;49.552;7.632;2022-09-28T19:46:01;9.80;99.90
16060;DHT22;8134;49.552;7.632;2022-09-28T19:48:28;9.80;99.90
16060;DHT22;8134;49.552;7.632;2022-09-28T19:50:57;9.70;99.90
16060;DHT22;8134;49.552;7.632;2022-09-28T19:53:24;9.70;99.90
16060;DHT22;8134;49.552;7.632;2022-09-28T19:55:51;9.70;99.90
16060;DHT22;8134;49.552;7.632;2022-09-28T19:58:18;9.70;99.90
16060;DHT22;8134;49.552;7.632;2022-09-28T20:00:44;9.70;99.90
16060;DHT22;8134;49.552;7.632;2022-09-28T20:03:09;9.60;99.90
16060;DHT22;8134;49.552;7.632;2022-09-28T20:05:34;9.70;99.90
16060;DHT22;8134;49.552;7.632;2022-09-28T20:08:03;9.70;99.90
16060;DHT22;8134;49.552;7.632;2022-09-28T20:10:28;9.70;99.90
16060;DHT22;8134;49.552;7.632;2022-09-28T20:12:54;9.70;99.90
16060;DHT22;8134;49.552;7.632;2022-09-28T20:15:19;9.80;99.90
16060;DHT22;8134;49.552;7.632;2022-09-28T20:17:47;9.70;99.90
16060;DHT22;8134;49.552;7.632;2022-09-28T20:20:13;9.70;99.90
16060;DHT22;8134;49.552;7.632;2022-09-28T20:22:39;9.80;99.90
16060;DHT22;8134;49.552;7.632;2022-09-28T20:25:06;9.80;99.90
16060;DHT22;8134;49.552;7.632;2022-09-28T20:27:31;9.70;99.90
16060;DHT22;8134;49.552;7.632;2022-09-28T20:29:57;9.70;99.90
16060;DHT22;8134;49.552;7.632;2022-09-28T20:32:24;9.70;99.90
16060;DHT22;8134;49.552;7.632;2022-09-28T20:34:49;9.60;99.90
16060;DHT22;8134;49.552;7.632;2022-09-28T20:37:15;9.60;99.90
16060;DHT22;8134;49.552;7.632;2022-09-28T20:39:42;9.70;99.90
16060;DHT22;8134;49.552;7.632;2022-09-28T20:42:07;9.60;99.90
